createdAt,value
2022-09-15T00:00:06.718Z,14.25
2022-09-15T00:00:16.385Z,14.25
2022-09-15T00:00:26.456Z,14.28
2022-09-15T00:00:36.411Z,14.28
2022-09-15T00:00:46.434Z,14.28
2022-09-15T00:00:56.475Z,14.27
2022-09-15T00:01:06.972Z,14.28
2022-09-15T00:01:16.538Z,14.27
2022-09-15T00:01:26.454Z,14.28
2022-09-15T00:01:36.543Z,14.25
2022-09-15T00:01:46.581Z,14.25
2022-09-15T00:01:56.503Z,14.29
2022-09-15T00:02:06.555Z,14.28
2022-09-15T00:02:16.581Z,14.29
2022-09-15T00:02:26.600Z,14.29
2022-09-15T00:02:36.638Z,14.29
2022-09-15T00:02:46.544Z,14.28
2022-09-15T00:02:56.555Z,14.29
2022-09-15T00:03:06.557Z,14.29
2022-09-15T00:03:16.448Z,14.27
2022-09-15T00:03:26.472Z,14.31
2022-09-15T00:03:36.492Z,14.29
2022-09-15T00:03:46.386Z,14.32
2022-09-15T00:03:56.413Z,14.29
2022-09-15T00:04:06.461Z,14.31
2022-09-15T00:04:16.490Z,14.32
2022-09-15T00:04:26.403Z,14.28
2022-09-15T00:04:36.444Z,14.37
2022-09-15T00:04:46.486Z,14.28
2022-09-15T00:04:56.388Z,14.32
2022-09-15T00:05:06.399Z,14.29
2022-09-15T00:05:16.386Z,14.29
2022-09-15T00:05:26.503Z,14.32
2022-09-15T00:05:36.428Z,14.31
2022-09-15T00:05:46.426Z,14.29
2022-09-15T00:05:56.432Z,14.28
2022-09-15T00:06:06.422Z,14.31
2022-09-15T00:06:16.426Z,14.28
2022-09-15T00:06:26.487Z,14.29
2022-09-15T00:06:36.401Z,14.27
2022-09-15T00:06:46.384Z,14.29
2022-09-15T00:06:56.429Z,14.29
2022-09-15T00:07:06.481Z,14.29
2022-09-15T00:07:16.415Z,14.29
2022-09-15T00:08:00.054Z,14.25
2022-09-15T00:08:00.283Z,14.25
2022-09-15T00:08:00.534Z,14.24
2022-09-15T00:08:00.693Z,14.24
2022-09-15T00:08:06.433Z,14.27
2022-09-15T00:08:16.426Z,14.25
2022-09-15T00:08:26.402Z,14.27
2022-09-15T00:08:40.645Z,14.20
2022-09-15T00:08:46.419Z,14.21
2022-09-15T00:08:56.442Z,14.20
2022-09-15T00:09:06.452Z,14.21
2022-09-15T00:09:16.469Z,14.24
2022-09-15T00:09:26.430Z,14.21
2022-09-15T00:09:36.419Z,14.25
2022-09-15T00:09:46.498Z,14.16
2022-09-15T00:09:56.436Z,14.17
2022-09-15T00:10:06.404Z,14.21
2022-09-15T00:10:16.437Z,14.27
2022-09-15T00:10:26.410Z,14.19
2022-09-15T00:10:36.483Z,14.21
2022-09-15T00:10:46.414Z,14.20
2022-09-15T00:10:56.381Z,14.20
2022-09-15T00:11:06.439Z,14.16
2022-09-15T00:11:16.406Z,14.20
2022-09-15T00:11:26.446Z,14.25
2022-09-15T00:11:36.435Z,14.27
2022-09-15T00:11:46.478Z,14.20
2022-09-15T00:11:56.399Z,14.19
2022-09-15T00:12:06.390Z,14.25
2022-09-15T00:12:16.436Z,14.20
2022-09-15T00:12:26.460Z,14.20
2022-09-15T00:12:36.488Z,14.17
2022-09-15T00:12:46.394Z,14.20
2022-09-15T00:12:57.045Z,14.17
2022-09-15T00:13:06.424Z,14.21
2022-09-15T00:13:16.385Z,14.21
2022-09-15T00:13:26.402Z,14.20
2022-09-15T00:13:36.493Z,14.20
2022-09-15T00:13:46.469Z,14.20
2022-09-15T00:13:56.391Z,14.16
2022-09-15T00:14:06.406Z,14.20
2022-09-15T00:14:16.496Z,14.20
2022-09-15T00:14:26.409Z,14.21
2022-09-15T00:14:36.420Z,14.20
2022-09-15T00:14:46.449Z,14.21
2022-09-15T00:14:56.494Z,14.20
2022-09-15T00:15:22.207Z,14.19
2022-09-15T00:15:22.501Z,14.17
2022-09-15T00:15:26.398Z,14.28
2022-09-15T00:15:36.403Z,14.21
2022-09-15T00:16:17.927Z,14.19
2022-09-15T00:16:18.339Z,14.19
2022-09-15T00:16:18.616Z,14.17
2022-09-15T00:16:18.835Z,14.19
2022-09-15T00:16:26.541Z,14.20
2022-09-15T00:16:38.207Z,14.20
2022-09-15T00:16:57.391Z,14.17
2022-09-15T00:16:57.654Z,14.17
2022-09-15T00:17:06.520Z,14.20
2022-09-15T00:17:16.414Z,14.16
2022-09-15T00:17:26.461Z,14.20
2022-09-15T00:17:36.439Z,14.20
2022-09-15T00:17:46.381Z,14.17
2022-09-15T00:17:56.448Z,14.20
2022-09-15T00:18:06.461Z,14.17
2022-09-15T00:18:16.470Z,14.19
2022-09-15T00:18:26.491Z,14.20
2022-09-15T00:18:44.851Z,14.16
2022-09-15T00:18:46.988Z,14.17
2022-09-15T00:18:56.387Z,14.17
2022-09-15T00:19:06.501Z,14.19
2022-09-15T00:19:16.535Z,14.19
2022-09-15T00:19:26.409Z,14.24
2022-09-15T00:19:38.509Z,14.16
2022-09-15T00:19:46.407Z,14.20
2022-09-15T00:19:56.407Z,14.19
2022-09-15T00:20:06.404Z,14.19
2022-09-15T00:20:54.406Z,14.16
2022-09-15T00:20:54.642Z,14.17
2022-09-15T00:20:55.042Z,14.14
2022-09-15T00:20:55.184Z,14.17
2022-09-15T00:20:56.443Z,14.17
2022-09-15T00:21:06.387Z,14.13
2022-09-15T00:21:17.408Z,14.21
2022-09-15T00:21:26.446Z,14.20
2022-09-15T00:21:36.451Z,14.20
2022-09-15T00:21:46.396Z,14.17
2022-09-15T00:21:56.386Z,14.19
2022-09-15T00:22:06.478Z,14.24
2022-09-15T00:22:28.320Z,14.19
2022-09-15T00:22:28.772Z,14.17
2022-09-15T00:22:36.443Z,14.16
2022-09-15T00:22:46.461Z,14.20
2022-09-15T00:22:56.411Z,14.21
2022-09-15T00:23:06.486Z,14.19
2022-09-15T00:23:16.382Z,14.20
2022-09-15T00:23:26.439Z,14.20
2022-09-15T00:23:36.458Z,14.16
2022-09-15T00:23:46.468Z,14.21
2022-09-15T00:23:56.467Z,14.19
2022-09-15T00:24:06.412Z,14.20
2022-09-15T00:24:16.507Z,14.27
2022-09-15T00:24:26.394Z,14.17
2022-09-15T00:25:08.838Z,14.14
2022-09-15T00:25:09.030Z,14.14
2022-09-15T00:25:09.205Z,14.14
2022-09-15T00:25:09.381Z,14.13
2022-09-15T00:25:16.405Z,14.14
2022-09-15T00:25:26.454Z,14.17
2022-09-15T00:25:36.404Z,14.16
2022-09-15T00:25:46.519Z,14.17
2022-09-15T00:25:56.481Z,14.17
2022-09-15T00:26:06.495Z,14.17
2022-09-15T00:26:16.430Z,14.14
2022-09-15T00:26:26.984Z,14.16
2022-09-15T00:26:36.446Z,14.16
2022-09-15T00:26:46.481Z,14.16
2022-09-15T00:26:56.407Z,14.17
2022-09-15T00:27:06.450Z,14.14
2022-09-15T00:27:16.435Z,14.16
2022-09-15T00:27:27.685Z,14.13
2022-09-15T00:27:36.445Z,14.14
2022-09-15T00:27:46.411Z,14.20
2022-09-15T00:27:56.490Z,14.17
2022-09-15T00:28:06.449Z,14.14
2022-09-15T00:28:16.395Z,14.14
2022-09-15T00:28:26.385Z,14.19
2022-09-15T00:28:51.190Z,14.13
2022-09-15T00:28:51.678Z,14.20
2022-09-15T00:28:56.382Z,14.14
2022-09-15T00:29:06.456Z,14.16
2022-09-15T00:29:17.675Z,14.14
2022-09-15T00:29:26.457Z,14.17
2022-09-15T00:29:36.496Z,14.17
2022-09-15T00:29:46.474Z,14.17
2022-09-15T00:29:56.470Z,14.16
2022-09-15T00:30:06.462Z,14.16
2022-09-15T00:30:16.457Z,14.17
2022-09-15T00:30:26.486Z,14.17
2022-09-15T00:30:36.433Z,14.17
2022-09-15T00:30:46.471Z,14.17
2022-09-15T00:30:56.483Z,14.19
2022-09-15T00:31:06.607Z,14.17
2022-09-15T00:31:16.595Z,14.19
2022-09-15T00:31:26.470Z,14.29
2022-09-15T00:31:36.460Z,14.19
2022-09-15T00:31:46.460Z,14.19
2022-09-15T00:31:56.405Z,14.19
2022-09-15T00:32:06.459Z,14.20
2022-09-15T00:32:20.342Z,14.17
2022-09-15T00:32:26.415Z,14.17
2022-09-15T00:32:36.421Z,14.20
2022-09-15T00:32:46.484Z,14.19
2022-09-15T00:32:56.427Z,14.20
2022-09-15T00:33:06.471Z,14.21
2022-09-15T00:33:16.448Z,14.20
2022-09-15T00:33:26.467Z,14.19
2022-09-15T00:33:36.397Z,14.20
2022-09-15T00:33:46.410Z,14.19
2022-09-15T00:33:56.434Z,14.20
2022-09-15T00:34:06.388Z,14.16
2022-09-15T00:34:16.504Z,14.20
2022-09-15T00:34:26.475Z,14.17
2022-09-15T00:34:36.485Z,14.17
2022-09-15T00:35:04.056Z,14.19
2022-09-15T00:35:04.261Z,14.17
2022-09-15T00:35:06.466Z,14.19
2022-09-15T00:35:16.443Z,14.24
2022-09-15T00:35:26.449Z,14.20
2022-09-15T00:35:36.463Z,14.24
2022-09-15T00:35:46.446Z,14.19
2022-09-15T00:35:56.458Z,14.17
2022-09-15T00:36:06.447Z,14.16
2022-09-15T00:36:16.426Z,14.19
2022-09-15T00:36:26.460Z,14.14
2022-09-15T00:36:36.431Z,14.19
2022-09-15T00:36:46.518Z,14.19
2022-09-15T00:36:56.455Z,14.20
2022-09-15T00:37:06.438Z,14.19
2022-09-15T00:37:16.434Z,14.17
2022-09-15T00:37:26.446Z,14.17
2022-09-15T00:37:36.455Z,14.16
2022-09-15T00:37:46.399Z,14.16
2022-09-15T00:37:56.469Z,14.16
2022-09-15T00:38:06.417Z,14.17
2022-09-15T00:38:16.426Z,14.17
2022-09-15T00:38:30.245Z,14.16
2022-09-15T00:38:36.404Z,14.16
2022-09-15T00:38:46.450Z,14.16
2022-09-15T00:38:56.390Z,14.16
2022-09-15T00:39:06.438Z,14.16
2022-09-15T00:39:16.423Z,14.14
2022-09-15T00:39:26.454Z,14.14
2022-09-15T00:39:36.394Z,14.14
2022-09-15T00:39:46.512Z,14.19
2022-09-15T00:39:56.659Z,14.14
2022-09-15T00:40:06.524Z,14.14
2022-09-15T00:40:30.953Z,14.10
2022-09-15T00:40:32.382Z,14.12
2022-09-15T00:40:36.481Z,14.13
2022-09-15T00:40:46.503Z,14.13
2022-09-15T00:40:56.496Z,14.13
2022-09-15T00:41:17.689Z,14.09
2022-09-15T00:41:17.893Z,14.13
2022-09-15T00:41:26.393Z,14.10
2022-09-15T00:41:36.441Z,14.13
2022-09-15T00:41:46.384Z,14.12
2022-09-15T00:41:56.460Z,14.12
2022-09-15T00:42:06.414Z,14.12
2022-09-15T00:42:16.470Z,14.10
2022-09-15T00:42:29.092Z,14.07
2022-09-15T00:42:51.255Z,14.09
2022-09-15T00:42:51.435Z,14.07
2022-09-15T00:42:56.395Z,14.09
2022-09-15T00:43:06.449Z,14.09
2022-09-15T00:43:16.533Z,14.09
2022-09-15T00:43:26.411Z,14.06
2022-09-15T00:43:36.428Z,14.07
2022-09-15T00:43:46.403Z,14.06
2022-09-15T00:43:56.474Z,14.07
2022-09-15T00:44:06.506Z,14.07
2022-09-15T00:44:16.540Z,14.06
2022-09-15T00:44:26.472Z,14.09
2022-09-15T00:44:36.505Z,14.09
2022-09-15T00:44:46.450Z,14.06
2022-09-15T00:44:56.461Z,14.07
2022-09-15T00:45:06.954Z,14.01
2022-09-15T00:45:16.531Z,14.04
2022-09-15T00:45:27.774Z,14.02
2022-09-15T00:45:36.474Z,14.06
2022-09-15T00:45:46.506Z,14.16
2022-09-15T00:45:56.509Z,14.04
2022-09-15T00:46:06.484Z,14.04
2022-09-15T00:46:16.556Z,14.04
2022-09-15T00:46:26.381Z,14.02
2022-09-15T00:47:19.299Z,13.99
2022-09-15T00:47:19.545Z,13.98
2022-09-15T00:47:20.302Z,13.99
2022-09-15T00:47:20.443Z,13.99
2022-09-15T00:47:20.600Z,13.99
2022-09-15T00:47:26.495Z,14.01
2022-09-15T00:47:36.486Z,14.02
2022-09-15T00:47:46.459Z,14.01
2022-09-15T00:47:56.456Z,14.01
2022-09-15T00:48:06.466Z,14.01
2022-09-15T00:48:16.482Z,13.99
2022-09-15T00:48:26.400Z,13.99
2022-09-15T00:48:36.446Z,13.99
2022-09-15T00:48:46.408Z,13.98
2022-09-15T00:48:56.395Z,13.98
2022-09-15T00:49:06.461Z,13.99
2022-09-15T00:49:26.682Z,13.96
2022-09-15T00:49:26.859Z,13.95
2022-09-15T00:49:40.363Z,13.95
2022-09-15T00:49:46.475Z,13.96
2022-09-15T00:49:59.185Z,13.96
2022-09-15T00:50:06.433Z,14.04
2022-09-15T00:50:16.477Z,13.95
2022-09-15T00:50:26.504Z,13.95
2022-09-15T00:50:36.921Z,13.95
2022-09-15T00:50:46.424Z,13.92
2022-09-15T00:50:56.437Z,13.94
2022-09-15T00:51:06.455Z,13.94
2022-09-15T00:51:16.413Z,13.92
2022-09-15T00:51:26.412Z,13.94
2022-09-15T00:51:36.453Z,13.92
2022-09-15T00:51:46.503Z,13.91
2022-09-15T00:51:56.419Z,13.94
2022-09-15T00:52:06.480Z,13.95
2022-09-15T00:52:16.461Z,13.91
2022-09-15T00:52:26.924Z,13.89
2022-09-15T00:52:36.420Z,13.96
2022-09-15T00:52:46.438Z,13.89
2022-09-15T00:52:56.391Z,13.89
2022-09-15T00:53:06.394Z,13.89
2022-09-15T00:53:16.456Z,13.89
2022-09-15T00:53:26.421Z,13.89
2022-09-15T00:53:51.354Z,13.83
2022-09-15T00:53:51.860Z,13.84
2022-09-15T00:53:56.892Z,13.87
2022-09-15T00:54:06.411Z,13.88
2022-09-15T00:54:44.898Z,13.81
2022-09-15T00:54:45.083Z,13.83
2022-09-15T00:54:45.295Z,13.83
2022-09-15T00:54:46.855Z,13.81
2022-09-15T00:54:56.392Z,13.84
2022-09-15T00:55:06.482Z,13.84
2022-09-15T00:55:16.440Z,13.83
2022-09-15T00:55:26.435Z,13.87
2022-09-15T00:55:36.382Z,13.87
2022-09-15T00:55:46.412Z,13.83
2022-09-15T00:55:56.389Z,13.81
2022-09-15T00:56:06.425Z,13.81
2022-09-15T00:56:16.472Z,13.83
2022-09-15T00:56:26.751Z,13.81
2022-09-15T00:56:36.485Z,13.81
2022-09-15T00:56:46.480Z,13.76
2022-09-15T00:56:56.389Z,13.81
2022-09-15T00:57:06.445Z,13.80
2022-09-15T00:57:16.506Z,13.80
2022-09-15T00:57:26.465Z,13.80
2022-09-15T00:57:36.445Z,13.79
2022-09-15T00:57:46.418Z,13.80
2022-09-15T00:57:56.486Z,13.77
2022-09-15T00:58:06.482Z,13.79
2022-09-15T00:58:16.409Z,13.77
2022-09-15T00:58:26.453Z,13.76
2022-09-15T00:58:36.465Z,13.77
2022-09-15T00:58:57.402Z,13.74
2022-09-15T00:58:57.601Z,13.74
2022-09-15T00:59:07.351Z,13.73
2022-09-15T00:59:16.662Z,13.73
2022-09-15T00:59:26.407Z,13.74
2022-09-15T00:59:36.459Z,13.69
2022-09-15T00:59:46.639Z,13.73
2022-09-15T00:59:56.466Z,13.73
2022-09-15T01:00:06.434Z,13.73
2022-09-15T01:00:16.480Z,13.74
2022-09-15T01:00:39.817Z,13.69
2022-09-15T01:00:40.021Z,13.61
2022-09-15T01:00:51.196Z,13.69
2022-09-15T01:00:56.503Z,13.76
2022-09-15T01:01:06.516Z,13.69
2022-09-15T01:01:16.569Z,13.69
2022-09-15T01:01:26.597Z,13.70
2022-09-15T01:01:36.606Z,13.67
2022-09-15T01:01:46.648Z,13.69
2022-09-15T01:01:56.516Z,13.67
2022-09-15T01:02:06.509Z,13.71
2022-09-15T01:02:16.534Z,13.74
2022-09-15T01:02:26.498Z,13.63
2022-09-15T01:02:36.451Z,13.65
2022-09-15T01:02:46.454Z,13.65
2022-09-15T01:02:56.554Z,13.65
2022-09-15T01:03:06.448Z,13.63
2022-09-15T01:03:16.491Z,13.62
2022-09-15T01:03:26.459Z,13.62
2022-09-15T01:03:36.487Z,13.63
2022-09-15T01:03:46.397Z,13.61
2022-09-15T01:03:56.499Z,13.62
2022-09-15T01:04:06.484Z,13.61
2022-09-15T01:04:16.422Z,13.61
2022-09-15T01:04:26.494Z,13.59
2022-09-15T01:04:36.482Z,13.59
2022-09-15T01:04:46.388Z,13.59
2022-09-15T01:04:58.541Z,13.62
2022-09-15T01:05:06.390Z,13.58
2022-09-15T01:05:16.449Z,13.58
2022-09-15T01:05:26.435Z,13.56
2022-09-15T01:05:52.597Z,13.54
2022-09-15T01:05:52.761Z,13.61
2022-09-15T01:05:56.445Z,13.55
2022-09-15T01:06:06.435Z,13.56
2022-09-15T01:06:16.419Z,13.61
2022-09-15T01:06:26.445Z,13.58
2022-09-15T01:06:36.463Z,13.56
2022-09-15T01:06:46.479Z,13.51
2022-09-15T01:06:56.500Z,13.54
2022-09-15T01:07:06.388Z,13.55
2022-09-15T01:07:16.477Z,13.55
2022-09-15T01:07:26.392Z,13.54
2022-09-15T01:07:36.399Z,13.54
2022-09-15T01:07:46.461Z,13.54
2022-09-15T01:07:56.399Z,13.54
2022-09-15T01:08:06.444Z,13.52
2022-09-15T01:08:16.402Z,13.54
2022-09-15T01:08:26.439Z,13.52
2022-09-15T01:08:36.412Z,13.52
2022-09-15T01:08:46.404Z,13.54
2022-09-15T01:08:56.469Z,13.51
2022-09-15T01:09:06.476Z,13.51
2022-09-15T01:09:16.496Z,13.51
2022-09-15T01:09:26.384Z,13.51
2022-09-15T01:09:36.403Z,13.47
2022-09-15T01:09:46.491Z,13.47
2022-09-15T01:09:56.390Z,13.47
2022-09-15T01:10:06.436Z,13.47
2022-09-15T01:10:16.470Z,13.47
2022-09-15T01:10:29.019Z,13.46
2022-09-15T01:10:36.488Z,13.46
2022-09-15T01:10:46.458Z,13.44
2022-09-15T01:10:56.439Z,13.46
2022-09-15T01:11:06.408Z,13.46
2022-09-15T01:11:16.510Z,13.44
2022-09-15T01:11:26.449Z,13.46
2022-09-15T01:11:36.395Z,13.44
2022-09-15T01:11:46.380Z,13.44
2022-09-15T01:11:56.448Z,13.46
2022-09-15T01:12:06.431Z,13.43
2022-09-15T01:12:16.412Z,13.44
2022-09-15T01:12:26.391Z,13.43
2022-09-15T01:12:36.445Z,13.41
2022-09-15T01:12:46.381Z,13.41
2022-09-15T01:12:56.475Z,13.37
2022-09-15T01:13:06.451Z,13.40
2022-09-15T01:13:18.504Z,13.38
2022-09-15T01:13:26.492Z,13.41
2022-09-15T01:13:36.443Z,13.40
2022-09-15T01:13:46.446Z,13.40
2022-09-15T01:13:56.837Z,13.40
2022-09-15T01:14:06.413Z,13.38
2022-09-15T01:14:16.392Z,13.38
2022-09-15T01:14:26.380Z,13.40
2022-09-15T01:14:36.528Z,13.38
2022-09-15T01:14:46.489Z,13.38
2022-09-15T01:14:56.398Z,13.37
2022-09-15T01:15:06.476Z,13.37
2022-09-15T01:15:16.502Z,13.37
2022-09-15T01:15:26.469Z,13.37
2022-09-15T01:15:49.882Z,13.32
2022-09-15T01:15:50.071Z,13.32
2022-09-15T01:15:56.495Z,13.36
2022-09-15T01:16:06.461Z,13.33
2022-09-15T01:16:16.539Z,13.36
2022-09-15T01:16:26.492Z,13.33
2022-09-15T01:16:36.516Z,13.36
2022-09-15T01:16:46.512Z,13.32
2022-09-15T01:16:56.553Z,13.33
2022-09-15T01:17:06.492Z,13.32
2022-09-15T01:17:16.382Z,13.33
2022-09-15T01:17:26.504Z,13.32
2022-09-15T01:17:36.490Z,13.32
2022-09-15T01:17:46.480Z,13.32
2022-09-15T01:17:56.411Z,13.29
2022-09-15T01:18:06.486Z,13.32
2022-09-15T01:18:16.483Z,13.33
2022-09-15T01:18:26.392Z,13.32
2022-09-15T01:18:36.461Z,13.30
2022-09-15T01:18:46.405Z,13.30
2022-09-15T01:18:56.430Z,13.30
2022-09-15T01:19:06.510Z,13.30
2022-09-15T01:19:16.406Z,13.30
2022-09-15T01:19:26.456Z,13.29
2022-09-15T01:19:37.165Z,13.29
2022-09-15T01:19:46.461Z,13.25
2022-09-15T01:19:56.458Z,13.30
2022-09-15T01:20:06.426Z,13.36
2022-09-15T01:20:16.404Z,13.30
2022-09-15T01:20:26.665Z,13.36
2022-09-15T01:20:36.485Z,13.32
2022-09-15T01:20:46.418Z,13.32
2022-09-15T01:20:56.472Z,13.32
2022-09-15T01:21:06.386Z,13.20
2022-09-15T01:21:16.399Z,13.32
2022-09-15T01:21:26.469Z,13.32
2022-09-15T01:21:36.466Z,13.30
2022-09-15T01:21:46.474Z,13.30
2022-09-15T01:21:58.878Z,13.37
2022-09-15T01:22:06.399Z,13.32
2022-09-15T01:22:16.384Z,13.30
2022-09-15T01:22:26.460Z,13.32
2022-09-15T01:22:36.492Z,13.30
2022-09-15T01:22:46.516Z,13.33
2022-09-15T01:22:56.501Z,13.32
2022-09-15T01:23:06.409Z,13.33
2022-09-15T01:23:16.403Z,13.32
2022-09-15T01:23:26.470Z,13.30
2022-09-15T01:23:36.478Z,13.32
2022-09-15T01:23:46.407Z,13.30
2022-09-15T01:23:56.522Z,13.30
2022-09-15T01:24:06.474Z,13.32
2022-09-15T01:24:16.480Z,13.29
2022-09-15T01:24:26.444Z,13.32
2022-09-15T01:24:36.392Z,13.32
2022-09-15T01:24:47.149Z,13.30
2022-09-15T01:24:56.442Z,13.30
2022-09-15T01:25:06.474Z,13.30
2022-09-15T01:25:16.503Z,13.30
2022-09-15T01:25:26.425Z,13.30
2022-09-15T01:25:36.401Z,13.27
2022-09-15T01:25:46.437Z,13.30
2022-09-15T01:25:56.382Z,13.25
2022-09-15T01:26:06.467Z,13.29
2022-09-15T01:26:16.460Z,13.27
2022-09-15T01:26:26.444Z,13.27
2022-09-15T01:26:36.513Z,13.27
2022-09-15T01:26:46.455Z,13.29
2022-09-15T01:26:56.455Z,13.32
2022-09-15T01:27:24.071Z,13.30
2022-09-15T01:27:42.231Z,13.24
2022-09-15T01:27:42.499Z,13.25
2022-09-15T01:27:43.202Z,13.24
2022-09-15T01:27:46.475Z,13.25
2022-09-15T01:27:56.392Z,13.25
2022-09-15T01:28:06.430Z,13.25
2022-09-15T01:28:16.458Z,13.25
2022-09-15T01:28:26.398Z,13.25
2022-09-15T01:28:36.412Z,13.25
2022-09-15T01:28:46.444Z,13.25
2022-09-15T01:28:56.487Z,13.25
2022-09-15T01:29:06.399Z,13.27
2022-09-15T01:29:16.453Z,13.25
2022-09-15T01:29:26.517Z,13.25
2022-09-15T01:29:36.488Z,13.27
2022-09-15T01:29:46.408Z,13.24
2022-09-15T01:29:56.484Z,13.24
2022-09-15T01:30:06.414Z,13.27
2022-09-15T01:30:16.433Z,13.24
2022-09-15T01:30:26.490Z,13.22
2022-09-15T01:30:36.420Z,13.25
2022-09-15T01:30:46.510Z,13.27
2022-09-15T01:30:56.489Z,13.25
2022-09-15T01:31:06.402Z,13.25
2022-09-15T01:31:16.573Z,13.24
2022-09-15T01:31:26.548Z,13.24
2022-09-15T01:31:36.569Z,13.24
2022-09-15T01:31:46.499Z,13.25
2022-09-15T01:31:56.440Z,13.25
2022-09-15T01:32:06.544Z,13.22
2022-09-15T01:32:16.408Z,13.25
2022-09-15T01:32:26.421Z,13.25
2022-09-15T01:32:36.383Z,13.24
2022-09-15T01:32:46.440Z,13.25
2022-09-15T01:32:56.433Z,13.25
2022-09-15T01:33:21.507Z,13.24
2022-09-15T01:33:21.794Z,13.22
2022-09-15T01:33:26.405Z,13.29
2022-09-15T01:33:36.496Z,13.24
2022-09-15T01:33:46.395Z,13.24
2022-09-15T01:33:56.379Z,13.24
2022-09-15T01:34:06.471Z,13.24
2022-09-15T01:34:16.456Z,13.25
2022-09-15T01:34:26.417Z,13.24
2022-09-15T01:34:36.442Z,13.24
2022-09-15T01:35:01.872Z,13.21
2022-09-15T01:35:02.049Z,13.25
2022-09-15T01:35:06.479Z,13.22
2022-09-15T01:35:16.477Z,13.25
2022-09-15T01:35:26.496Z,13.21
2022-09-15T01:35:36.381Z,13.22
2022-09-15T01:35:46.403Z,13.22
2022-09-15T01:35:56.435Z,13.27
2022-09-15T01:36:06.413Z,13.22
2022-09-15T01:36:16.383Z,13.22
2022-09-15T01:36:26.516Z,13.22
2022-09-15T01:36:36.466Z,13.21
2022-09-15T01:37:00.596Z,13.20
2022-09-15T01:37:00.779Z,13.11
2022-09-15T01:37:06.569Z,13.18
2022-09-15T01:37:27.077Z,13.17
2022-09-15T01:37:27.274Z,13.18
2022-09-15T01:37:36.483Z,13.21
2022-09-15T01:37:46.452Z,13.22
2022-09-15T01:37:56.440Z,13.20
2022-09-15T01:38:06.415Z,13.20
2022-09-15T01:38:16.410Z,13.21
2022-09-15T01:38:26.473Z,13.21
2022-09-15T01:38:36.493Z,13.20
2022-09-15T01:38:46.421Z,13.18
2022-09-15T01:38:56.396Z,13.20
2022-09-15T01:39:06.464Z,13.18
2022-09-15T01:39:26.841Z,13.17
2022-09-15T01:39:27.035Z,13.25
2022-09-15T01:39:36.636Z,13.17
2022-09-15T01:39:46.494Z,13.18
2022-09-15T01:39:56.447Z,13.18
2022-09-15T01:40:06.571Z,13.17
2022-09-15T01:40:16.521Z,13.17
2022-09-15T01:40:27.890Z,13.15
2022-09-15T01:40:36.396Z,13.17
2022-09-15T01:40:46.410Z,13.17
2022-09-15T01:41:13.370Z,13.14
2022-09-15T01:41:13.567Z,13.15
2022-09-15T01:41:17.141Z,13.15
2022-09-15T01:41:27.520Z,13.14
2022-09-15T01:41:36.651Z,13.14
2022-09-15T01:41:46.447Z,13.06
2022-09-15T01:42:30.097Z,13.11
2022-09-15T01:42:30.305Z,13.11
2022-09-15T01:42:30.493Z,13.11
2022-09-15T01:42:30.667Z,13.12
2022-09-15T01:42:36.407Z,13.12
2022-09-15T01:43:04.069Z,13.11
2022-09-15T01:43:04.279Z,13.04
2022-09-15T01:43:06.429Z,13.11
2022-09-15T01:43:16.486Z,13.15
2022-09-15T01:43:26.478Z,13.12
